createdAt,value
2022-11-04T00:02:04.850Z,1.70
2022-11-04T00:04:31.368Z,1.03
2022-11-04T00:06:58.274Z,1.43
2022-11-04T00:09:27.557Z,2.70
2022-11-04T00:12:13.273Z,1.83
2022-11-04T00:14:39.644Z,1.43
2022-11-04T00:17:25.331Z,1.70
2022-11-04T00:20:12.870Z,1.47
2022-11-04T00:23:00.129Z,1.40
2022-11-04T00:25:45.246Z,1.40
2022-11-04T00:28:37.861Z,1.47
2022-11-04T00:31:25.721Z,1.83
2022-11-04T00:33:54.814Z,2.20
2022-11-04T00:36:23.000Z,2.00
2022-11-04T00:38:49.527Z,1.10
2022-11-04T00:41:28.882Z,2.90
2022-11-04T00:44:01.408Z,1.20
2022-11-04T00:46:29.806Z,1.00
2022-11-04T00:48:56.581Z,1.30
2022-11-04T00:51:23.304Z,1.43
2022-11-04T00:53:50.266Z,2.70
2022-11-04T00:56:17.000Z,1.90
2022-11-04T00:58:43.461Z,2.63
2022-11-04T01:01:18.607Z,1.73
2022-11-04T01:03:46.211Z,7.47
2022-11-04T01:06:12.752Z,1.77
2022-11-04T01:08:39.389Z,1.07
2022-11-04T01:11:06.645Z,1.93
2022-11-04T01:13:33.855Z,1.33
2022-11-04T01:16:01.459Z,1.00
2022-11-04T01:18:28.420Z,1.50
2022-11-04T01:20:55.304Z,1.50
2022-11-04T01:23:21.785Z,1.87
2022-11-04T01:25:48.194Z,1.30
2022-11-04T01:28:14.777Z,1.43
2022-11-04T01:30:41.241Z,2.63
2022-11-04T01:33:07.627Z,2.00
2022-11-04T01:35:34.160Z,2.30
2022-11-04T01:38:00.653Z,1.50
2022-11-04T01:40:27.361Z,1.40
2022-11-04T01:42:53.766Z,2.73
2022-11-04T01:45:21.791Z,1.43
2022-11-04T01:48:12.720Z,1.30
2022-11-04T01:50:39.499Z,2.00
2022-11-04T01:53:11.340Z,2.97
2022-11-04T01:55:42.740Z,1.27
2022-11-04T01:58:12.943Z,0.93
2022-11-04T02:00:40.639Z,1.37
2022-11-04T02:03:18.747Z,2.37
2022-11-04T02:05:46.867Z,1.30
2022-11-04T02:08:15.481Z,3.30
2022-11-04T02:10:48.295Z,2.03
2022-11-04T02:13:14.740Z,2.33
2022-11-04T02:16:25.042Z,1.03
2022-11-04T02:19:06.417Z,2.20
2022-11-04T02:21:49.528Z,1.30
2022-11-04T02:24:36.345Z,1.37
2022-11-04T02:27:26.891Z,0.80
2022-11-04T02:30:27.051Z,3.33
2022-11-04T02:33:06.696Z,1.00
2022-11-04T02:35:43.599Z,1.73
2022-11-04T02:38:24.180Z,2.00
2022-11-04T02:41:14.447Z,2.50
2022-11-04T02:44:15.372Z,1.00
2022-11-04T02:46:53.247Z,1.37
2022-11-04T02:49:40.619Z,2.00
2022-11-04T02:52:12.629Z,5.17
2022-11-04T02:54:54.685Z,3.20
2022-11-04T02:57:25.852Z,2.87
2022-11-04T03:00:01.821Z,2.47
2022-11-04T03:02:34.521Z,1.80
2022-11-04T03:05:03.948Z,2.07
2022-11-04T03:07:35.446Z,6.03
2022-11-04T03:10:08.232Z,0.80
2022-11-04T03:12:42.507Z,2.70
2022-11-04T03:15:20.443Z,2.17
2022-11-04T03:18:05.864Z,1.53
2022-11-04T03:20:32.547Z,5.83
2022-11-04T03:23:00.245Z,1.87
2022-11-04T03:25:33.559Z,3.60
2022-11-04T03:28:25.607Z,6.10
2022-11-04T03:30:57.141Z,1.23
2022-11-04T03:33:39.144Z,1.43
2022-11-04T03:36:08.658Z,3.63
2022-11-04T03:38:36.340Z,2.80
2022-11-04T03:41:07.237Z,1.00
2022-11-04T03:43:36.732Z,1.13
2022-11-04T03:46:03.444Z,2.27
2022-11-04T03:48:30.072Z,5.30
2022-11-04T03:50:56.472Z,2.00
2022-11-04T03:56:15.569Z,3.43
2022-11-04T03:59:14.584Z,2.37
2022-11-04T04:02:00.499Z,3.00
2022-11-04T04:04:34.564Z,2.03
2022-11-04T04:07:16.688Z,3.57
2022-11-04T04:09:53.817Z,2.17
2022-11-04T04:12:33.956Z,3.10
2022-11-04T04:15:08.987Z,2.33
2022-11-04T04:18:01.800Z,4.40
2022-11-04T04:20:31.572Z,2.30
2022-11-04T04:23:25.072Z,3.20
2022-11-04T04:26:12.216Z,3.77
2022-11-04T04:28:40.001Z,7.50
2022-11-04T04:31:08.980Z,1.80
2022-11-04T04:33:35.396Z,2.53
2022-11-04T04:36:02.090Z,2.27
2022-11-04T04:38:50.057Z,2.90
2022-11-04T04:41:46.442Z,5.90
2022-11-04T04:44:43.700Z,3.23
2022-11-04T04:47:13.082Z,3.03
2022-11-04T04:49:50.482Z,2.67
2022-11-04T04:52:17.208Z,5.37
2022-11-04T04:54:44.943Z,2.40
2022-11-04T04:57:11.683Z,5.43
2022-11-04T04:59:38.136Z,2.00
2022-11-04T05:02:04.523Z,6.87
2022-11-04T05:04:31.011Z,2.33
2022-11-04T05:06:57.323Z,3.67
2022-11-04T05:09:23.731Z,6.67
2022-11-04T05:11:50.183Z,5.37
2022-11-04T05:14:16.803Z,7.23
2022-11-04T05:16:43.120Z,4.83
2022-11-04T05:19:09.509Z,6.20
2022-11-04T05:21:35.958Z,6.43
2022-11-04T05:24:02.388Z,4.23
2022-11-04T05:26:28.797Z,4.27
2022-11-04T05:28:55.179Z,5.60
2022-11-04T05:31:21.602Z,5.90
2022-11-04T05:33:48.190Z,7.03
2022-11-04T05:36:16.569Z,6.80
2022-11-04T05:38:43.334Z,7.17
2022-11-04T05:41:11.950Z,3.70
2022-11-04T05:43:38.505Z,2.93
2022-11-04T05:46:04.938Z,5.93
2022-11-04T05:48:34.029Z,3.73
2022-11-04T05:51:02.891Z,5.40
2022-11-04T05:53:29.320Z,3.73
2022-11-04T05:55:55.691Z,6.70
2022-11-04T05:58:22.252Z,1.43
2022-11-04T06:00:48.688Z,3.43
2022-11-04T06:03:16.415Z,3.97
2022-11-04T06:05:43.143Z,3.93
2022-11-04T06:08:09.808Z,3.70
2022-11-04T06:10:36.505Z,5.23
2022-11-04T06:13:02.884Z,7.20
2022-11-04T06:15:29.188Z,5.30
2022-11-04T06:17:55.559Z,7.10
2022-11-04T06:20:22.013Z,2.87
2022-11-04T06:22:48.530Z,3.70
2022-11-04T06:25:14.929Z,7.43
2022-11-04T06:27:41.254Z,3.80
2022-11-04T06:30:08.303Z,2.67
2022-11-04T06:32:34.712Z,4.30
2022-11-04T06:35:01.114Z,3.67
2022-11-04T06:37:27.590Z,4.20
2022-11-04T06:39:53.947Z,3.73
2022-11-04T06:42:20.413Z,3.97
2022-11-04T06:44:46.764Z,5.47
2022-11-04T06:47:13.221Z,2.33
2022-11-04T06:49:39.940Z,4.40
2022-11-04T06:52:06.349Z,2.80
2022-11-04T06:54:32.695Z,2.43
2022-11-04T06:56:59.116Z,3.53
2022-11-04T06:59:25.531Z,4.70
2022-11-04T07:01:52.329Z,7.03
2022-11-04T07:04:19.331Z,4.17
2022-11-04T07:06:45.781Z,3.67
2022-11-04T07:09:15.337Z,6.83
2022-11-04T07:11:43.632Z,4.97
2022-11-04T07:14:10.654Z,3.10
2022-11-04T07:16:36.974Z,4.53
2022-11-04T07:19:03.791Z,2.43
2022-11-04T07:21:30.338Z,7.50
2022-11-04T07:23:56.667Z,5.23
2022-11-04T07:26:23.088Z,3.87
2022-11-04T07:28:49.476Z,4.53
2022-11-04T07:31:16.905Z,5.20
2022-11-04T07:33:43.369Z,3.17
2022-11-04T07:36:12.759Z,5.70
2022-11-04T07:38:39.121Z,5.93
2022-11-04T07:41:05.730Z,4.60
2022-11-04T07:43:32.042Z,7.07
2022-11-04T07:46:12.237Z,5.10
2022-11-04T07:48:38.859Z,6.50
2022-11-04T07:51:06.865Z,8.70
2022-11-04T07:53:33.444Z,2.83
2022-11-04T07:56:04.568Z,4.27
2022-11-04T07:58:30.939Z,4.90
2022-11-04T08:01:01.870Z,5.97
2022-11-04T08:03:28.256Z,4.10
2022-11-04T08:05:59.831Z,4.37
2022-11-04T08:08:27.259Z,5.57
2022-11-04T08:10:56.908Z,5.07
2022-11-04T08:13:24.050Z,3.77
2022-11-04T08:15:50.614Z,6.03
2022-11-04T08:18:16.972Z,5.50
2022-11-04T08:20:49.925Z,6.50
2022-11-04T08:23:17.277Z,5.43
2022-11-04T08:25:43.703Z,3.43
2022-11-04T08:28:13.179Z,6.43
2022-11-04T08:30:39.758Z,5.80
2022-11-04T08:33:06.329Z,3.77
2022-11-04T08:35:40.762Z,6.30
2022-11-04T08:38:07.415Z,5.03
2022-11-04T08:40:33.771Z,4.17
2022-11-04T08:43:00.091Z,6.67
2022-11-04T08:45:29.990Z,5.73
2022-11-04T08:48:05.175Z,4.10
2022-11-04T08:50:32.044Z,6.17
2022-11-04T08:52:58.508Z,7.53
2022-11-04T08:55:24.920Z,6.20
2022-11-04T08:57:51.276Z,7.50
2022-11-04T09:00:17.716Z,9.77
2022-11-04T09:02:44.066Z,4.73
2022-11-04T09:05:10.459Z,6.87
2022-11-04T09:07:37.453Z,4.77
2022-11-04T09:10:05.840Z,5.43
2022-11-04T09:12:32.379Z,6.67
2022-11-04T09:14:58.983Z,7.83
2022-11-04T09:17:25.457Z,6.67
2022-11-04T09:19:51.862Z,6.97
2022-11-04T09:22:18.271Z,6.20
2022-11-04T09:24:44.595Z,6.53
2022-11-04T09:27:11.072Z,8.03
2022-11-04T09:29:37.497Z,6.57
2022-11-04T09:32:04.537Z,7.10
2022-11-04T09:34:31.102Z,4.67
2022-11-04T09:36:58.566Z,4.03
2022-11-04T09:39:25.667Z,7.13
2022-11-04T09:41:56.591Z,4.70
2022-11-04T09:45:06.914Z,5.07
2022-11-04T09:47:28.367Z,4.77
2022-11-04T09:49:58.418Z,5.07
2022-11-04T09:52:32.408Z,4.17
2022-11-04T09:55:06.654Z,5.27
2022-11-04T09:57:33.248Z,3.50
2022-11-04T10:00:00.428Z,6.70
2022-11-04T10:03:09.168Z,4.43
2022-11-04T10:05:44.968Z,6.63
2022-11-04T10:08:43.934Z,3.83
2022-11-04T10:11:13.144Z,4.27
2022-11-04T10:14:01.206Z,2.83
2022-11-04T10:17:06.901Z,6.53
2022-11-04T10:20:02.148Z,6.13
2022-11-04T10:22:34.050Z,5.73
2022-11-04T10:25:22.527Z,7.60
2022-11-04T10:27:51.188Z,6.93
2022-11-04T10:30:29.045Z,7.90
2022-11-04T10:33:09.633Z,3.57
2022-11-04T10:35:50.134Z,4.33
2022-11-04T10:38:23.992Z,6.70
2022-11-04T10:40:53.371Z,2.23
2022-11-04T10:43:35.943Z,6.23
2022-11-04T10:46:39.703Z,5.30
2022-11-04T10:49:18.233Z,4.67
2022-11-04T10:51:45.295Z,3.10
2022-11-04T10:54:11.701Z,5.07
2022-11-04T10:56:40.712Z,3.83
2022-11-04T10:59:27.454Z,4.47
2022-11-04T11:01:57.091Z,6.60
2022-11-04T11:04:36.170Z,7.23
2022-11-04T11:07:06.282Z,4.60
2022-11-04T11:09:35.704Z,7.37
2022-11-04T11:12:23.287Z,5.10
2022-11-04T11:14:53.106Z,7.03
2022-11-04T11:17:26.101Z,5.10
2022-11-04T11:20:08.078Z,3.90
2022-11-04T11:22:42.768Z,5.27
2022-11-04T11:25:23.747Z,5.43
2022-11-04T11:27:53.623Z,5.17
2022-11-04T11:30:29.532Z,6.40
2022-11-04T11:33:00.335Z,9.87
2022-11-04T11:35:32.263Z,4.87
2022-11-04T11:38:00.200Z,4.67
2022-11-04T11:40:35.511Z,6.13
2022-11-04T11:43:02.434Z,5.10
2022-11-04T11:45:30.508Z,6.70
2022-11-04T11:47:57.485Z,11.40
2022-11-04T11:50:34.889Z,7.60
2022-11-04T11:53:19.976Z,3.20
2022-11-04T11:56:11.451Z,4.18
2022-11-04T12:01:37.734Z,3.00
2022-11-04T12:10:44.707Z,4.87
2022-11-04T12:13:23.343Z,3.23
2022-11-04T12:16:29.348Z,3.93
2022-11-04T12:19:14.101Z,5.57
2022-11-04T12:22:19.681Z,2.67
2022-11-04T12:25:02.731Z,6.97
2022-11-04T12:27:47.727Z,3.80
2022-11-04T12:30:22.315Z,4.73
2022-11-04T12:32:58.859Z,3.57
2022-11-04T12:35:56.149Z,3.57
2022-11-04T12:38:47.549Z,5.03
2022-11-04T12:42:14.369Z,4.50
2022-11-04T12:44:36.510Z,1.83
2022-11-04T12:47:15.059Z,9.77
2022-11-04T12:49:54.673Z,1.73
2022-11-04T12:52:50.567Z,5.07
2022-11-04T12:55:30.963Z,3.87
2022-11-04T12:58:21.134Z,5.50
2022-11-04T13:00:59.431Z,6.37
2022-11-04T13:03:35.473Z,4.57
2022-11-04T13:06:33.683Z,6.93
2022-11-04T13:09:15.088Z,4.10
2022-11-04T13:12:06.678Z,5.57
2022-11-04T13:14:47.129Z,5.70
2022-11-04T13:17:18.371Z,7.90
2022-11-04T13:19:53.844Z,5.47
2022-11-04T13:22:28.926Z,6.67
2022-11-04T13:25:06.836Z,10.30
2022-11-04T13:27:45.096Z,6.03
2022-11-04T13:30:36.359Z,6.33
2022-11-04T13:33:27.515Z,7.53
2022-11-04T13:36:12.272Z,5.07
2022-11-04T13:38:46.008Z,6.67
2022-11-04T13:41:21.919Z,4.17
2022-11-04T13:44:01.265Z,7.03
2022-11-04T13:46:30.873Z,12.27
2022-11-04T13:49:00.219Z,6.27
2022-11-04T13:51:57.284Z,5.00
2022-11-04T13:54:41.806Z,6.17
2022-11-04T13:57:16.146Z,6.30
2022-11-04T14:00:03.250Z,7.07
2022-11-04T14:02:54.643Z,4.00
2022-11-04T14:05:24.199Z,9.43
2022-11-04T14:08:02.734Z,6.40
2022-11-04T14:10:47.892Z,4.13
2022-11-04T14:13:26.315Z,5.80
2022-11-04T14:16:05.997Z,9.47
2022-11-04T14:18:41.017Z,10.97
2022-11-04T14:21:13.073Z,13.73
2022-11-04T14:23:41.909Z,7.70
2022-11-04T14:26:11.381Z,6.93
2022-11-04T14:28:39.153Z,6.00
2022-11-04T14:31:15.973Z,4.03
2022-11-04T14:33:53.706Z,5.13
2022-11-04T14:36:20.384Z,4.60
2022-11-04T14:39:07.216Z,6.80
2022-11-04T14:41:39.778Z,5.30
2022-11-04T14:44:25.753Z,4.43
2022-11-04T14:46:57.443Z,5.57
2022-11-04T14:49:39.262Z,7.90
2022-11-04T14:52:30.465Z,8.30
2022-11-04T14:55:18.420Z,5.33
2022-11-04T14:57:46.122Z,6.67
2022-11-04T15:00:31.863Z,6.97
2022-11-04T15:03:57.531Z,8.23
2022-11-04T15:06:07.139Z,7.70
2022-11-04T15:08:33.498Z,4.23
2022-11-04T15:11:16.990Z,8.03
2022-11-04T15:13:47.716Z,6.53
2022-11-04T15:16:24.296Z,4.70
2022-11-04T15:18:52.979Z,7.43
2022-11-04T15:21:19.464Z,5.73
2022-11-04T15:23:48.896Z,6.77
2022-11-04T15:26:30.827Z,5.77
2022-11-04T15:29:00.372Z,6.73
2022-11-04T15:31:33.517Z,5.93
2022-11-04T15:34:03.685Z,5.60
2022-11-04T15:36:34.979Z,11.17
2022-11-04T15:39:11.774Z,8.20
2022-11-04T15:41:59.395Z,8.73
2022-11-04T15:44:32.822Z,9.10
2022-11-04T15:47:02.322Z,6.53
2022-11-04T15:49:35.307Z,5.03
2022-11-04T15:52:07.172Z,6.53
2022-11-04T15:54:40.078Z,5.93
2022-11-04T15:57:21.712Z,10.23
2022-11-04T16:00:17.579Z,9.33
2022-11-04T16:02:53.997Z,9.27
2022-11-04T16:05:33.161Z,8.37
2022-11-04T16:08:20.191Z,6.73
2022-11-04T16:10:47.023Z,8.90
2022-11-04T16:13:16.550Z,9.00
2022-11-04T16:16:10.586Z,9.13
2022-11-04T16:18:41.675Z,4.53
2022-11-04T16:21:22.309Z,8.93
2022-11-04T16:23:52.936Z,11.40
2022-11-04T16:26:26.351Z,10.03
2022-11-04T16:28:54.847Z,8.47
2022-11-04T16:31:21.073Z,9.77
2022-11-04T16:33:47.790Z,7.43
2022-11-04T16:36:23.525Z,7.20
2022-11-04T16:38:58.087Z,6.30
2022-11-04T16:41:27.001Z,12.43
2022-11-04T16:43:54.584Z,8.33
2022-11-04T16:46:21.995Z,8.07
2022-11-04T16:48:49.740Z,5.80
2022-11-04T16:51:19.020Z,9.70
2022-11-04T16:53:50.053Z,12.13
2022-11-04T16:56:18.655Z,10.07
2022-11-04T16:58:45.607Z,9.83
2022-11-04T17:01:15.617Z,14.97
2022-11-04T17:03:45.514Z,10.27
2022-11-04T17:06:13.972Z,9.00
2022-11-04T17:08:42.002Z,10.90
2022-11-04T17:11:09.443Z,9.90
2022-11-04T17:13:36.768Z,11.20
2022-11-04T17:16:04.233Z,6.83
2022-11-04T17:18:31.952Z,4.63
2022-11-04T17:20:59.442Z,5.27
2022-11-04T17:23:25.759Z,8.47
2022-11-04T17:25:52.752Z,9.97
2022-11-04T17:28:19.374Z,11.40
2022-11-04T17:30:45.750Z,5.13
2022-11-04T17:33:17.205Z,10.30
2022-11-04T17:35:46.460Z,10.23
2022-11-04T17:38:13.215Z,15.97
2022-11-04T17:40:58.636Z,20.37
2022-11-04T17:43:44.272Z,21.93
2022-11-04T17:46:38.504Z,19.97
2022-11-04T17:49:07.033Z,13.87
2022-11-04T17:51:33.888Z,14.30
2022-11-04T17:54:00.390Z,14.73
2022-11-04T17:56:26.747Z,11.87
2022-11-04T17:58:53.583Z,12.10
2022-11-04T18:01:23.239Z,11.90
2022-11-04T18:03:52.302Z,10.90
2022-11-04T18:06:19.320Z,13.90
2022-11-04T18:08:46.134Z,10.87
2022-11-04T18:11:33.040Z,11.30
2022-11-04T18:13:59.466Z,13.33
2022-11-04T18:16:25.932Z,8.07
2022-11-04T18:18:52.484Z,12.07
2022-11-04T18:21:19.188Z,11.43
2022-11-04T18:23:45.643Z,14.03
2022-11-04T18:26:12.087Z,11.27
2022-11-04T18:28:39.276Z,11.20
2022-11-04T18:31:10.192Z,9.90
2022-11-04T18:33:37.035Z,11.00
2022-11-04T18:36:06.666Z,11.77
2022-11-04T18:38:33.128Z,11.70
2022-11-04T18:41:01.041Z,7.97
2022-11-04T18:43:27.500Z,8.77
2022-11-04T18:45:54.456Z,13.27
2022-11-04T18:48:21.799Z,11.13
2022-11-04T18:50:48.784Z,14.60
2022-11-04T18:53:15.952Z,8.73
2022-11-04T18:55:42.369Z,12.07
2022-11-04T18:58:08.966Z,15.07
2022-11-04T19:00:37.468Z,12.93
2022-11-04T19:03:04.098Z,11.93
2022-11-04T19:05:30.485Z,16.90
2022-11-04T19:07:56.877Z,12.10
2022-11-04T19:10:23.570Z,10.70
2022-11-04T19:13:08.600Z,12.30
2022-11-04T19:15:35.130Z,10.03
2022-11-04T19:18:01.492Z,10.70
2022-11-04T19:20:28.045Z,10.60
2022-11-04T19:22:54.424Z,9.53
2022-11-04T19:25:20.740Z,13.10
2022-11-04T19:28:05.283Z,13.77
2022-11-04T19:30:34.756Z,11.73
2022-11-04T19:33:01.235Z,11.40
2022-11-04T19:35:28.513Z,17.97
2022-11-04T19:37:55.388Z,10.73
2022-11-04T19:40:22.130Z,10.30
2022-11-04T19:43:07.171Z,8.90
2022-11-04T19:45:33.688Z,9.60
2022-11-04T19:48:00.197Z,11.53
2022-11-04T19:50:26.707Z,11.33
2022-11-04T19:52:53.011Z,11.10
2022-11-04T19:55:19.743Z,9.30
2022-11-04T19:57:46.064Z,8.77
2022-11-04T20:00:12.630Z,10.07
2022-11-04T20:02:39.485Z,10.87
2022-11-04T20:05:06.824Z,12.40
2022-11-04T20:07:33.322Z,9.17
2022-11-04T20:09:59.669Z,10.73
2022-11-04T20:12:44.596Z,11.03
2022-11-04T20:15:11.147Z,7.87
2022-11-04T20:17:37.456Z,10.70
2022-11-04T20:20:04.240Z,10.93
2022-11-04T20:22:30.702Z,10.00
2022-11-04T20:24:57.137Z,12.23
2022-11-04T20:27:23.523Z,13.90
2022-11-04T20:29:50.179Z,11.13
2022-11-04T20:32:16.508Z,11.23
2022-11-04T20:34:42.939Z,15.63
2022-11-04T20:37:11.376Z,13.97
2022-11-04T20:39:37.989Z,11.07
2022-11-04T20:42:04.612Z,12.10
2022-11-04T20:44:30.948Z,12.23
2022-11-04T20:46:57.273Z,13.10
2022-11-04T20:49:23.620Z,13.30
2022-11-04T20:51:54.741Z,11.23
2022-11-04T20:54:21.537Z,13.60
2022-11-04T20:56:48.005Z,11.73
2022-11-04T20:59:14.600Z,18.43
2022-11-04T21:01:43.499Z,13.70
2022-11-04T21:04:12.616Z,16.60
2022-11-04T21:06:39.501Z,14.03
2022-11-04T21:09:11.469Z,15.33
2022-11-04T21:11:39.621Z,12.43
2022-11-04T21:14:08.317Z,16.40
2022-11-04T21:16:35.680Z,13.53
2022-11-04T21:19:02.868Z,14.00
2022-11-04T21:21:29.913Z,14.00
2022-11-04T21:23:57.982Z,14.30
2022-11-04T21:26:26.993Z,14.63
2022-11-04T21:28:55.271Z,14.43
2022-11-04T21:31:23.059Z,13.67
2022-11-04T21:33:50.707Z,13.87
2022-11-04T21:36:17.417Z,12.70
2022-11-04T21:38:43.769Z,13.60
2022-11-04T21:41:12.943Z,13.60
2022-11-04T21:43:39.947Z,14.00
2022-11-04T21:46:09.517Z,12.50
2022-11-04T21:48:36.936Z,13.00
2022-11-04T21:51:09.082Z,14.67
2022-11-04T21:53:36.113Z,13.47
2022-11-04T21:56:11.286Z,13.10
2022-11-04T21:58:38.582Z,15.80
2022-11-04T22:01:07.055Z,13.03
2022-11-04T22:03:34.214Z,16.20
2022-11-04T22:06:05.846Z,16.73
2022-11-04T22:08:32.923Z,15.93
2022-11-04T22:11:14.429Z,16.50
2022-11-04T22:13:41.349Z,15.97
2022-11-04T22:16:13.834Z,16.27
2022-11-04T22:18:40.926Z,16.50
2022-11-04T22:21:10.107Z,15.93
2022-11-04T22:23:37.383Z,15.40
2022-11-04T22:26:06.616Z,21.30
2022-11-04T22:28:33.346Z,19.77
2022-11-04T22:31:10.023Z,17.30
2022-11-04T22:33:37.758Z,21.17
2022-11-04T22:36:08.029Z,21.67
2022-11-04T22:38:35.667Z,21.43
2022-11-04T22:41:04.118Z,18.00
2022-11-04T22:43:30.551Z,22.43
2022-11-04T22:45:58.221Z,22.47
2022-11-04T22:48:24.703Z,23.47
2022-11-04T22:50:56.887Z,23.33
2022-11-04T22:53:24.037Z,23.53
2022-11-04T22:55:51.170Z,19.93
2022-11-04T22:58:17.892Z,19.17
2022-11-04T23:00:44.977Z,21.83
2022-11-04T23:03:11.940Z,23.90
2022-11-04T23:05:38.587Z,17.83
2022-11-04T23:08:05.226Z,21.63
2022-11-04T23:10:50.113Z,21.10
2022-11-04T23:13:35.017Z,28.77
2022-11-04T23:16:20.848Z,22.97
2022-11-04T23:18:51.471Z,18.77
2022-11-04T23:21:38.555Z,26.20
2022-11-04T23:24:24.340Z,19.03
2022-11-04T23:26:51.167Z,19.33
2022-11-04T23:29:36.920Z,19.47
2022-11-04T23:32:03.599Z,17.33
2022-11-04T23:34:48.573Z,17.50
2022-11-04T23:37:15.454Z,20.10
2022-11-04T23:39:44.671Z,22.37
2022-11-04T23:42:16.080Z,19.57
2022-11-04T23:45:07.274Z,24.83
2022-11-04T23:48:04.355Z,21.70
2022-11-04T23:50:52.036Z,21.10
2022-11-04T23:53:38.492Z,20.10
2022-11-04T23:56:40.840Z,17.90
2022-11-04T23:59:29.803Z,19.50
